Time;durP1;ratioP1;P1;durP2;ratioP2;P2;SDS_P1;SDS_P2;PMS_P1;PMS_P2;Temp;Humidity;BMP_temperature;BMP_pressure;BME280_temperature;BME280_humidity;BME280_pressure;Samples;Min_cycle;Max_cycle;Signal;HPM_P1;HPM_P2
2022/07/24 00:00:53;;;;;;;15.20;11.02;;;;;;;21.67;76.45;96615.34;5214710;22;20472;-88
2022/07/24 00:03:20;;;;;;;13.10;10.82;;;;;;;21.70;76.39;96619.31;5068071;28;20072;-87
2022/07/24 00:05:47;;;;;;;12.85;10.73;;;;;;;21.73;76.29;96611.03;5070085;28;20064;-87
2022/07/24 00:08:14;;;;;;;16.08;12.50;;;;;;;21.72;75.70;96612.22;5068453;22;20041;-79
2022/07/24 00:13:17;;;;;;;16.73;12.85;;;;;;;21.51;75.41;96618.38;5360472;22;20032;-83
2022/07/24 00:15:46;;;;;;;13.68;11.70;;;;;;;21.49;75.62;96612.41;5070952;28;20060;-86
2022/07/24 00:18:13;;;;;;;11.88;10.60;;;;;;;21.56;75.15;96606.94;5067392;28;20045;-87
2022/07/24 00:20:40;;;;;;;13.32;10.73;;;;;;;21.61;75.09;96617.69;5084671;22;20056;-86
2022/07/24 00:23:08;;;;;;;15.95;12.65;;;;;;;21.56;75.39;96614.44;5048272;28;20049;-84
2022/07/24 00:25:35;;;;;;;13.43;11.15;;;;;;;21.55;75.10;96610.88;5068068;28;20053;-87
2022/07/24 00:28:02;;;;;;;15.00;11.43;;;;;;;21.60;75.10;96613.28;5066330;28;20460;-80
2022/07/24 00:30:29;;;;;;;13.02;11.32;;;;;;;21.60;74.54;96610.53;5064296;28;20049;-87
2022/07/24 00:32:58;;;;;;;14.93;11.38;;;;;;;21.65;74.45;96616.91;5067079;28;20075;-86
2022/07/24 00:35:25;;;;;;;13.60;11.13;;;;;;;21.65;74.43;96614.13;5066716;28;20072;-86
2022/07/24 00:37:54;;;;;;;13.45;11.38;;;;;;;21.65;74.80;96605.81;5066722;28;20067;-86
2022/07/24 00:40:21;;;;;;;13.25;9.98;;;;;;;21.69;75.15;96609.41;5065893;28;20060;-86
2022/07/24 00:42:48;;;;;;;11.55;10.35;;;;;;;21.71;75.46;96601.50;5041158;28;20404;-86
2022/07/24 00:45:16;;;;;;;13.20;11.18;;;;;;;21.74;75.06;96609.06;5068080;28;20079;-87
2022/07/24 00:47:43;;;;;;;14.00;11.07;;;;;;;21.72;75.19;96605.88;5074734;28;20055;-85
2022/07/24 00:50:12;;;;;;;14.05;10.77;;;;;;;21.74;75.49;96609.06;5072318;28;20072;-85
2022/07/24 00:52:40;;;;;;;12.27;10.95;;;;;;;21.74;75.18;96612.63;5070724;28;20049;-87
2022/07/24 00:55:08;;;;;;;13.93;10.23;;;;;;;21.73;75.12;96607.47;5204216;22;20113;-85
2022/07/24 00:57:35;;;;;;;11.95;10.65;;;;;;;21.70;75.36;96608.22;5037848;28;20036;-86
2022/07/24 01:02:40;;;;;;;13.52;11.20;;;;;;;21.63;75.56;96612.53;5871620;22;20032;-81
2022/07/24 01:05:08;;;;;;;12.05;10.63;;;;;;;21.66;75.94;96612.94;5353595;22;20020;-85
2022/07/24 01:07:36;;;;;;;12.90;10.77;;;;;;;21.65;75.68;96606.59;5070533;28;20096;-86
2022/07/24 01:10:05;;;;;;;16.17;12.27;;;;;;;21.58;76.02;96604.56;5069754;28;20135;-84
2022/07/24 01:12:32;;;;;;;13.70;11.95;;;;;;;21.56;75.78;96604.19;5073625;28;20040;-86
2022/07/24 01:14:59;;;;;;;12.07;10.88;;;;;;;21.57;75.75;96610.50;5072376;28;20065;-87
2022/07/24 01:17:30;;;;;;;17.17;11.40;;;;;;;21.58;75.67;96607.34;5038066;28;20045;-88
2022/07/24 01:19:59;;;;;;;11.48;10.02;;;;;;;21.56;75.67;96608.91;5029590;28;20036;-86
2022/07/24 01:22:28;;;;;;;14.55;12.30;;;;;;;21.49;75.76;96606.88;5073785;28;20109;-84
2022/07/24 01:27:31;;;;;;;13.07;11.43;;;;;;;21.44;75.95;96606.44;5876245;22;20488;-86
2022/07/24 01:29:58;;;;;;;16.40;11.88;;;;;;;21.44;76.11;96607.22;5071409;28;20055;-86
2022/07/24 01:32:25;;;;;;;15.85;13.90;;;;;;;21.39;76.33;96613.13;5062012;28;20037;-86
2022/07/24 01:34:52;;;;;;;16.58;13.82;;;;;;;21.33;76.66;96611.88;5073249;28;20064;-86
2022/07/24 01:39:49;;;;;;;15.30;12.20;;;;;;;21.25;77.22;96608.22;5075420;28;20033;-85
2022/07/24 01:42:16;;;;;;;16.95;11.63;;;;;;;21.22;77.65;96608.19;5075937;28;20048;-85
2022/07/24 01:44:43;;;;;;;13.18;11.68;;;;;;;21.24;77.18;96608.59;5074597;28;20112;-86
2022/07/24 01:49:35;;;;;;;15.15;12.45;;;;;;;21.20;77.23;96599.47;5402169;22;20045;-86
2022/07/24 01:52:02;;;;;;;15.35;12.73;;;;;;;21.24;77.73;96614.13;5070680;28;20045;-83
2022/07/24 01:54:29;;;;;;;16.70;13.32;;;;;;;21.23;77.45;96601.47;5071791;28;20128;-86
2022/07/24 01:56:58;;;;;;;14.32;12.10;;;;;;;21.21;77.72;96601.06;5072301;28;20068;-85
2022/07/24 01:59:26;;;;;;;14.60;11.65;;;;;;;21.26;78.09;96595.19;5051432;28;20032;-86
2022/07/24 02:01:53;;;;;;;12.45;11.13;;;;;;;21.25;77.87;96586.06;5069222;28;20050;-86
2022/07/24 02:04:20;;;;;;;13.90;11.52;;;;;;;21.26;77.96;96595.19;5070379;28;20466;-87
2022/07/24 02:06:47;;;;;;;18.10;14.00;;;;;;;21.19;78.13;96592.31;5097517;22;20032;-85
2022/07/24 02:09:14;;;;;;;18.20;13.48;;;;;;;21.20;77.61;96602.25;5069195;28;20071;-88
2022/07/24 02:11:41;;;;;;;14.00;11.73;;;;;;;21.19;77.85;96589.56;5052692;28;20049;-84
2022/07/24 02:14:13;;;;;;;15.50;12.82;;;;;;;21.21;78.70;96587.22;5069662;28;20049;-86
2022/07/24 02:16:40;;;;;;;14.43;12.98;;;;;;;21.20;78.09;96591.16;5043676;28;20048;-83
2022/07/24 02:19:07;;;;;;;14.93;12.32;;;;;;;21.17;77.89;96586.38;5053526;22;20606;-82
2022/07/24 02:21:36;;;;;;;17.55;13.88;;;;;;;21.10;78.27;96585.13;5037955;28;20068;-82
2022/07/24 02:24:03;;;;;;;16.35;13.90;;;;;;;21.00;78.08;96583.06;5036134;28;20045;-82
2022/07/24 02:26:30;;;;;;;15.23;13.43;;;;;;;21.02;77.66;96579.91;5055283;28;20484;-83
2022/07/24 02:31:36;;;;;;;18.80;14.48;;;;;;;20.98;78.54;96582.63;5411083;22;20037;-85
2022/07/24 02:39:13;;;;;;;15.90;13.02;;;;;;;20.95;78.33;96586.16;5050889;28;20044;-84
2022/07/24 02:41:40;;;;;;;15.98;12.68;;;;;;;20.88;78.63;96590.81;5113968;22;20510;-83
2022/07/24 02:44:07;;;;;;;16.13;13.38;;;;;;;20.84;78.96;96585.28;5051812;28;20049;-84
2022/07/24 02:46:34;;;;;;;18.33;13.88;;;;;;;20.82;79.03;96588.41;5057278;28;20045;-85
2022/07/24 02:51:28;;;;;;;14.90;12.73;;;;;;;20.77;79.54;96593.47;5071290;22;20071;-85
2022/07/24 02:53:55;;;;;;;15.57;12.75;;;;;;;20.73;79.71;96584.34;5053390;28;20037;-87
2022/07/24 02:56:22;;;;;;;13.80;11.98;;;;;;;20.72;79.46;96588.28;5035007;28;20113;-85
2022/07/24 02:58:49;;;;;;;17.10;13.23;;;;;;;20.71;79.91;96587.47;5053509;28;20075;-86
2022/07/24 03:01:19;;;;;;;12.77;11.38;;;;;;;20.71;80.32;96593.00;5340138;22;20072;-86
2022/07/24 03:03:46;;;;;;;14.23;12.73;;;;;;;20.63;80.12;96582.25;5074290;28;20033;-85
2022/07/24 03:06:13;;;;;;;14.15;11.15;;;;;;;20.64;80.25;96587.41;5071895;28;20053;-86
2022/07/24 03:08:42;;;;;;;13.32;11.38;;;;;;;20.64;80.61;96592.94;5577621;22;20045;-86
2022/07/24 03:13:44;;;;;;;13.57;12.05;;;;;;;20.65;80.15;96607.56;5670863;22;20712;-85
2022/07/24 03:16:11;;;;;;;14.35;12.30;;;;;;;20.60;80.06;96586.56;5082755;22;20138;-86
2022/07/24 03:18:38;;;;;;;15.57;12.73;;;;;;;20.57;80.39;96593.66;5065891;23;20039;-87
2022/07/24 03:21:05;;;;;;;13.80;12.40;;;;;;;20.54;80.24;96588.88;5075483;28;20033;-82
2022/07/24 03:31:09;;;;;;;13.77;12.27;;;;;;;20.37;80.72;96594.97;5103103;22;20043;-85
2022/07/24 03:33:36;;;;;;;15.05;12.82;;;;;;;20.32;80.51;96596.09;5054116;28;20045;-87
2022/07/24 03:36:03;;;;;;;15.07;11.98;;;;;;;20.25;80.91;96606.25;5051418;28;20149;-85
2022/07/24 03:38:30;;;;;;;14.10;12.38;;;;;;;20.20;80.86;96595.50;5070020;28;20021;-86
2022/07/24 03:40:57;;;;;;;15.02;12.15;;;;;;;20.14;81.19;96602.53;5051782;28;20051;-86
2022/07/24 03:43:24;;;;;;;13.85;12.38;;;;;;;20.10;81.67;96607.22;5069983;28;20047;-86
2022/07/24 03:45:51;;;;;;;16.85;12.15;;;;;;;20.05;81.65;96606.41;5070206;28;20045;-86
2022/07/24 03:48:19;;;;;;;14.68;12.65;;;;;;;20.01;81.63;96604.75;5068892;28;20092;-87
2022/07/24 03:50:46;;;;;;;14.63;12.52;;;;;;;19.96;81.72;96603.09;5068837;28;20135;-87
2022/07/24 03:53:13;;;;;;;16.60;12.60;;;;;;;19.93;81.83;96603.81;5035793;28;20045;-85
2022/07/24 03:55:40;;;;;;;15.40;12.98;;;;;;;19.93;82.28;96606.59;5044782;28;20037;-86
2022/07/24 03:58:07;;;;;;;14.85;11.60;;;;;;;19.90;82.46;96615.66;5067944;22;20048;-85
2022/07/24 04:00:34;;;;;;;13.80;12.30;;;;;;;19.90;82.63;96610.13;5047850;28;20041;-86
2022/07/24 04:03:01;;;;;;;14.27;12.77;;;;;;;19.91;82.67;96617.22;5050319;28;20073;-87
2022/07/24 04:05:30;;;;;;;13.82;12.32;;;;;;;19.94;83.20;96615.69;5016642;28;20038;-87
2022/07/24 04:07:56;;;;;;;15.15;12.50;;;;;;;19.92;83.02;96618.81;5050889;28;20112;-86
2022/07/24 04:10:23;;;;;;;16.00;13.07;;;;;;;19.90;83.11;96615.66;5033043;28;20116;-87
2022/07/24 04:12:50;;;;;;;16.92;13.32;;;;;;;19.88;83.01;96617.97;5065919;22;20053;-85
2022/07/24 04:15:17;;;;;;;16.98;13.32;;;;;;;19.87;83.14;96616.38;5050467;28;20105;-85
2022/07/24 04:17:44;;;;;;;17.63;13.30;;;;;;;19.76;83.19;96626.47;5050079;28;20072;-86
2022/07/24 04:20:12;;;;;;;15.63;13.68;;;;;;;19.61;83.61;96630.97;5138954;22;20576;-86
2022/07/24 04:22:43;;;;;;;14.90;13.05;;;;;;;19.63;84.16;96634.19;5287572;23;20033;-85
2022/07/24 04:25:10;;;;;;;15.63;13.07;;;;;;;19.66;84.52;96638.94;5053786;28;20069;-86
2022/07/24 04:27:37;;;;;;;15.50;13.82;;;;;;;19.71;84.39;96632.31;5037454;28;20072;-86
2022/07/24 04:30:06;;;;;;;19.10;15.05;;;;;;;19.69;84.38;96626.38;5036392;28;20076;-85
2022/07/24 04:32:33;;;;;;;18.73;14.63;;;;;;;19.61;84.67;96625.44;5053154;28;20053;-87
2022/07/24 04:35:00;;;;;;;15.63;13.77;;;;;;;19.58;85.11;96628.94;5054150;28;20056;-86
2022/07/24 04:37:26;;;;;;;17.10;14.35;;;;;;;19.61;85.48;96633.72;5019321;28;20064;-86
2022/07/24 04:39:55;;;;;;;17.98;15.63;;;;;;;19.68;86.46;96635.81;5053557;28;20064;-85
2022/07/24 04:42:22;;;;;;;19.33;16.20;;;;;;;19.70;86.35;96633.50;5034655;28;20057;-86
2022/07/24 04:44:49;;;;;;;18.08;15.80;;;;;;;19.65;86.77;96631.84;5053548;28;20071;-86
2022/07/24 04:47:16;;;;;;;23.15;17.17;;;;;;;19.68;87.20;96635.81;5034630;28;20544;-85
2022/07/24 04:49:43;;;;;;;19.58;16.55;;;;;;;19.74;87.40;96623.31;5026947;28;20034;-88
2022/07/24 04:52:10;;;;;;;24.65;19.58;;;;;;;19.78;87.00;96629.66;5051929;28;20113;-85
2022/07/24 04:54:38;;;;;;;24.02;18.90;;;;;;;19.80;86.46;96627.34;5053563;28;20065;-87
2022/07/24 04:57:07;;;;;;;24.38;20.13;;;;;;;19.84;86.60;96625.44;5052500;28;20053;-85
2022/07/24 04:59:34;;;;;;;23.48;19.55;;;;;;;19.87;86.35;96621.91;5054308;28;20045;-87
2022/07/24 05:02:02;;;;;;;23.48;19.70;;;;;;;19.90;86.55;96629.47;5053330;28;20104;-88
2022/07/24 05:04:29;;;;;;;24.40;20.92;;;;;;;19.92;86.58;96632.66;5036407;28;20072;-87
2022/07/24 05:06:56;;;;;;;22.50;19.35;;;;;;;19.93;87.04;96630.66;5036717;28;20068;-85
2022/07/24 05:09:23;;;;;;;25.92;19.75;;;;;;;19.98;86.85;96636.69;5052595;28;20068;-87
2022/07/24 05:11:50;;;;;;;22.13;17.17;;;;;;;19.99;86.88;96652.13;5054065;28;20072;-86
2022/07/24 05:14:18;;;;;;;21.08;18.38;;;;;;;20.07;86.95;96644.72;5052697;28;20069;-87
2022/07/24 05:16:45;;;;;;;21.45;18.52;;;;;;;20.05;86.30;96645.09;5053276;28;20065;-87
2022/07/24 05:19:12;;;;;;;22.80;18.60;;;;;;;20.02;85.72;96645.03;5075750;22;20045;-87
2022/07/24 05:21:40;;;;;;;20.42;17.58;;;;;;;19.95;85.33;96656.00;5073439;28;20147;-86
2022/07/24 05:24:07;;;;;;;21.90;16.42;;;;;;;19.97;85.53;96662.72;5055360;28;20087;-85
2022/07/24 05:26:35;;;;;;;20.58;17.00;;;;;;;20.03;85.85;96652.94;5074419;28;20048;-87
2022/07/24 05:29:05;;;;;;;22.02;16.55;;;;;;;20.07;86.03;96659.31;5072358;28;20048;-77
2022/07/24 05:31:34;;;;;;;20.17;18.08;;;;;;;20.07;85.88;96655.78;5056696;28;20049;-87
2022/07/24 05:34:02;;;;;;;23.42;18.95;;;;;;;20.10;85.67;96657.81;5072925;28;20093;-86
2022/07/24 05:36:29;;;;;;;22.20;19.42;;;;;;;20.08;85.80;96658.16;5072726;28;20059;-86
2022/07/24 05:38:56;;;;;;;21.38;17.70;;;;;;;20.19;85.71;96660.28;5072028;23;20064;-86
2022/07/24 05:41:23;;;;;;;21.83;17.15;;;;;;;20.25;85.26;96658.78;5072764;28;20108;-87
2022/07/24 05:43:50;;;;;;;22.27;19.02;;;;;;;20.26;85.81;96658.44;5056332;22;20099;-86
2022/07/24 05:46:17;;;;;;;19.48;16.02;;;;;;;20.41;85.46;96651.13;5071371;28;20076;-86
2022/07/24 05:54:29;;;;;;;22.33;17.93;;;;;;;20.78;84.08;96647.69;5567549;22;20032;-86
2022/07/24 05:56:56;;;;;;;24.20;18.73;;;;;;;20.79;81.98;96650.06;5075148;22;20101;-82
2022/07/24 06:01:59;;;;;;;21.65;16.80;;;;;;;20.92;80.35;96653.34;5185911;22;20056;-86
2022/07/24 06:04:26;;;;;;;17.98;14.70;;;;;;;21.02;80.11;96652.69;5048185;28;20037;-80
2022/07/24 06:06:52;;;;;;;20.40;16.20;;;;;;;21.17;80.41;96653.63;5032205;28;20038;-79
2022/07/24 06:09:19;;;;;;;18.17;15.73;;;;;;;21.33;80.68;96656.19;5047547;28;20056;-79
2022/07/24 06:11:47;;;;;;;20.35;17.73;;;;;;;21.31;80.07;96648.28;5049203;28;20041;-80
2022/07/24 06:14:13;;;;;;;18.42;15.57;;;;;;;21.40;79.42;96649.91;5048760;28;20051;-79
2022/07/24 06:16:40;;;;;;;18.88;16.70;;;;;;;21.44;79.50;96651.56;5049147;28;20040;-79
2022/07/24 06:19:06;;;;;;;17.35;14.85;;;;;;;21.49;79.03;96648.44;5037987;28;20046;-78
2022/07/24 06:21:33;;;;;;;21.25;17.42;;;;;;;21.55;79.73;96646.91;5028651;28;20053;-79
2022/07/24 06:24:00;;;;;;;22.40;15.65;;;;;;;21.60;79.43;96651.28;5029318;28;20523;-79
2022/07/24 06:26:26;;;;;;;17.63;14.75;;;;;;;21.59;78.57;96653.28;5026211;28;20053;-78
2022/07/24 06:28:54;;;;;;;18.85;16.58;;;;;;;21.66;77.89;96646.19;5026646;28;20046;-79
2022/07/24 06:31:20;;;;;;;19.42;16.27;;;;;;;21.68;77.70;96654.94;5026757;28;20084;-79
2022/07/24 06:33:47;;;;;;;21.40;15.68;;;;;;;21.71;76.27;96651.38;5029722;28;20048;-78
2022/07/24 06:36:15;;;;;;;19.38;16.88;;;;;;;21.72;76.23;96655.78;5028918;28;20056;-80
2022/07/24 06:38:41;;;;;;;17.80;15.75;;;;;;;21.73;76.25;96651.81;5027809;28;20045;-79
2022/07/24 06:41:08;;;;;;;18.30;15.43;;;;;;;21.77;76.71;96652.63;5028078;28;20049;-79
2022/07/24 06:43:34;;;;;;;21.38;16.33;;;;;;;21.76;76.25;96651.81;5028059;28;20697;-79
2022/07/24 06:46:02;;;;;;;16.30;14.50;;;;;;;21.82;76.17;96652.25;5027277;28;20500;-79
2022/07/24 06:48:30;;;;;;;22.98;18.42;;;;;;;21.81;75.88;96664.53;5027035;28;20049;-78
2022/07/24 06:50:56;;;;;;;21.02;16.48;;;;;;;21.86;74.71;96655.88;5026260;28;20049;-73
2022/07/24 06:53:23;;;;;;;20.50;16.25;;;;;;;21.92;74.67;96656.31;5020127;28;20073;-73
2022/07/24 06:55:53;;;;;;;21.42;17.27;;;;;;;21.89;74.17;96655.13;5007190;28;20604;-74
2022/07/24 06:58:19;;;;;;;18.65;16.15;;;;;;;21.96;74.39;96654.38;5006074;28;20046;-74
2022/07/24 07:00:46;;;;;;;17.92;15.77;;;;;;;22.03;74.21;96649.69;5006726;28;20042;-74
2022/07/24 07:03:14;;;;;;;18.35;14.75;;;;;;;22.08;73.84;96652.09;5005661;28;20052;-74
2022/07/24 07:05:40;;;;;;;15.40;13.50;;;;;;;22.17;74.05;96659.28;5007003;28;20050;-73
2022/07/24 07:08:07;;;;;;;18.48;16.30;;;;;;;22.19;74.27;96654.16;5005808;28;20058;-73
2022/07/24 07:10:33;;;;;;;20.02;16.88;;;;;;;22.26;73.68;96649.44;5006683;28;20053;-74
2022/07/24 07:13:00;;;;;;;23.15;18.80;;;;;;;22.25;73.33;96644.31;5006271;28;20081;-73
2022/07/24 07:15:27;;;;;;;21.70;18.25;;;;;;;22.28;73.54;96654.59;5006696;28;20050;-73
2022/07/24 07:17:53;;;;;;;21.52;18.08;;;;;;;22.21;72.61;96658.13;5005147;28;20409;-73
2022/07/24 07:20:21;;;;;;;20.48;16.58;;;;;;;22.22;73.22;96661.69;5006774;28;20224;-73
2022/07/24 07:22:48;;;;;;;20.05;15.68;;;;;;;22.28;73.26;96657.38;5007249;28;20053;-73
2022/07/24 07:25:14;;;;;;;23.90;18.05;;;;;;;22.35;74.59;96661.00;5026390;28;20045;-73
2022/07/24 07:27:41;;;;;;;23.10;18.15;;;;;;;22.33;74.47;96657.00;5026524;28;20045;-73
2022/07/24 07:30:09;;;;;;;21.67;17.23;;;;;;;22.40;74.14;96652.31;5025952;28;20045;-73
2022/07/24 07:32:36;;;;;;;18.48;14.55;;;;;;;22.37;72.58;96657.84;5026592;28;20041;-73
2022/07/24 07:35:03;;;;;;;16.70;14.90;;;;;;;22.60;71.11;96655.59;5015415;28;20417;-73
2022/07/24 07:37:31;;;;;;;20.40;17.02;;;;;;;22.69;69.46;96657.22;5011208;28;20041;-74
2022/07/24 07:39:58;;;;;;;16.55;13.63;;;;;;;22.84;69.87;96656.09;5010891;28;20052;-73
2022/07/24 07:42:24;;;;;;;15.80;12.63;;;;;;;22.96;69.71;96661.31;5010677;28;20532;-74
2022/07/24 07:44:51;;;;;;;14.13;11.20;;;;;;;23.07;67.03;96655.78;5011325;28;20046;-73
2022/07/24 07:47:18;;;;;;;13.05;11.52;;;;;;;23.24;66.39;96659.81;5010612;28;20050;-74
2022/07/24 07:49:44;;;;;;;12.45;11.15;;;;;;;23.25;63.30;96655.84;5010995;28;20053;-74
2022/07/24 07:52:11;;;;;;;11.25;9.80;;;;;;;23.41;63.41;96661.81;5010433;28;20084;-75
2022/07/24 07:54:39;;;;;;;12.73;10.57;;;;;;;23.54;62.14;96657.47;5011002;28;20045;-74
2022/07/24 07:57:05;;;;;;;19.23;11.82;;;;;;;23.59;60.25;96659.84;5010433;28;20041;-74
2022/07/24 07:59:32;;;;;;;13.32;11.75;;;;;;;23.65;62.31;96663.88;5011106;28;20056;-74
2022/07/24 08:01:58;;;;;;;12.18;10.75;;;;;;;23.79;61.96;96665.06;5010703;28;20057;-75
2022/07/24 08:04:25;;;;;;;14.52;11.18;;;;;;;23.86;61.43;96662.31;5010371;28;20045;-74
2022/07/24 08:06:51;;;;;;;12.35;10.02;;;;;;;24.08;60.51;96663.88;5010670;28;20579;-75
2022/07/24 08:09:18;;;;;;;13.75;9.70;;;;;;;24.57;59.05;96667.78;5010432;28;20413;-74
2022/07/24 08:11:46;;;;;;;10.43;9.23;;;;;;;25.16;54.60;96665.22;5010886;28;20050;-75
2022/07/24 08:14:12;;;;;;;12.55;9.25;;;;;;;25.73;53.26;96667.59;5010300;28;20120;-73
2022/07/24 08:16:39;;;;;;;11.15;8.50;;;;;;;26.24;51.91;96663.22;5010908;28;20069;-73
2022/07/24 08:19:06;;;;;;;10.88;8.23;;;;;;;26.62;51.60;96662.47;5010438;28;20046;-74
2022/07/24 08:21:32;;;;;;;8.85;7.95;;;;;;;26.63;48.47;96664.88;5010680;28;20608;-74
2022/07/24 08:23:59;;;;;;;12.80;7.93;;;;;;;26.79;48.08;96653.13;5019822;28;20061;-75
2022/07/24 08:26:30;;;;;;;10.45;8.07;;;;;;;26.89;49.32;96662.59;5028964;28;20095;-75
2022/07/24 08:28:58;;;;;;;11.27;8.35;;;;;;;26.83;48.73;96662.22;5029408;28;20513;-75
2022/07/24 08:31:25;;;;;;;12.25;9.85;;;;;;;26.72;47.68;96659.56;5028707;28;20046;-75
2022/07/24 08:33:52;;;;;;;11.50;8.50;;;;;;;26.92;45.83;96653.34;5029319;28;20041;-75
2022/07/24 08:36:18;;;;;;;9.30;7.95;;;;;;;26.91;46.32;96651.75;5028578;28;20129;-75
2022/07/24 08:38:45;;;;;;;8.60;7.50;;;;;;;26.93;46.90;96657.72;5029282;28;20049;-73
2022/07/24 08:41:13;;;;;;;8.90;7.75;;;;;;;27.05;47.83;96657.19;5028735;28;20183;-74
2022/07/24 08:43:39;;;;;;;9.38;7.25;;;;;;;27.32;50.42;96657.25;5029283;28;20046;-74
2022/07/24 08:46:10;;;;;;;10.10;8.05;;;;;;;27.47;46.65;96660.63;5028623;28;20056;-74
2022/07/24 08:48:38;;;;;;;10.23;7.20;;;;;;;27.54;46.55;96657.72;5029054;28;20080;-75
2022/07/24 08:51:05;;;;;;;8.52;7.40;;;;;;;27.60;44.16;96653.22;5028591;28;20048;-74
2022/07/24 08:53:31;;;;;;;9.65;7.38;;;;;;;27.54;45.33;96658.50;5022281;28;20046;-75
2022/07/24 08:55:59;;;;;;;10.32;7.80;;;;;;;27.62;46.45;96656.41;5009347;28;20501;-75
2022/07/24 08:58:25;;;;;;;8.20;7.40;;;;;;;27.82;45.70;96657.34;5008771;28;20050;-75
2022/07/24 09:00:52;;;;;;;8.15;7.35;;;;;;;27.87;45.08;96658.03;5009093;28;20413;-75
2022/07/24 09:03:20;;;;;;;9.10;6.72;;;;;;;28.04;44.10;96654.19;5008847;28;20049;-75
2022/07/24 09:05:54;;;;;;;23.33;13.30;;;;;;;28.02;45.29;96657.38;5009257;28;20052;-75
2022/07/24 09:08:21;;;;;;;8.10;7.30;;;;;;;28.05;43.52;96655.75;5008894;28;20047;-77
2022/07/24 09:10:55;;;;;;;9.48;7.68;;;;;;;28.03;46.08;96649.78;5012499;28;20046;-78
2022/07/24 09:13:26;;;;;;;9.80;7.05;;;;;;;28.09;44.05;96650.88;5012189;28;20124;-78
2022/07/24 09:15:53;;;;;;;10.18;8.00;;;;;;;28.23;42.83;96655.44;5012490;28;20046;-79
2022/07/24 09:18:28;;;;;;;10.10;7.57;;;;;;;28.44;40.83;96648.69;5011996;28;20584;-79
2022/07/24 09:20:55;;;;;;;8.95;6.60;;;;;;;28.47;41.19;96647.84;5012712;28;20046;-77
2022/07/24 09:23:22;;;;;;;9.55;7.22;;;;;;;28.46;44.11;96643.47;5016603;28;20049;-76
2022/07/24 09:25:52;;;;;;;9.40;7.00;;;;;;;28.56;42.10;96645.28;5032290;28;20041;-75
2022/07/24 09:28:20;;;;;;;10.18;8.70;;;;;;;28.69;42.02;96640.59;5031604;28;20046;-76
2022/07/24 09:30:48;;;;;;;9.70;6.88;;;;;;;28.86;42.04;96645.03;5032253;28;20076;-75
2022/07/24 09:33:16;;;;;;;8.77;6.68;;;;;;;28.77;40.89;96644.84;5031635;28;20444;-76
2022/07/24 09:35:47;;;;;;;8.88;6.60;;;;;;;28.96;42.27;96645.28;5032180;28;20046;-76
2022/07/24 09:38:15;;;;;;;10.27;6.82;;;;;;;28.94;42.50;96642.94;5031416;28;20049;-75
2022/07/24 09:40:43;;;;;;;8.05;6.85;;;;;;;29.10;40.06;96633.78;5031928;28;20045;-75
2022/07/24 09:43:15;;;;;;;8.52;7.15;;;;;;;29.05;42.06;96642.69;5031199;28;20049;-78
2022/07/24 09:45:53;;;;;;;8.43;6.78;;;;;;;29.16;42.30;96642.47;5031857;28;20056;-76
2022/07/24 09:48:22;;;;;;;8.02;7.10;;;;;;;29.05;39.31;96642.69;5031257;28;20528;-76
2022/07/24 09:50:52;;;;;;;7.13;6.40;;;;;;;29.13;41.13;96630.13;5031568;28;20046;-77
2022/07/24 09:53:21;;;;;;;7.72;6.82;;;;;;;29.15;40.12;96627.66;5026113;28;20050;-77
2022/07/24 09:55:58;;;;;;;10.52;7.28;;;;;;;29.21;42.84;96628.72;5011851;28;20045;-77
2022/07/24 09:58:25;;;;;;;10.82;7.28;;;;;;;29.12;40.34;96626.50;5011405;28;20119;-76
2022/07/24 10:00:55;;;;;;;7.60;6.80;;;;;;;29.18;39.11;96628.78;5011511;28;20057;-77
2022/07/24 10:03:26;;;;;;;8.80;6.45;;;;;;;29.31;39.36;96627.69;5011183;28;20053;-76
2022/07/24 10:05:59;;;;;;;9.00;6.70;;;;;;;29.36;40.56;96630.00;5011620;28;20042;-77
2022/07/24 10:08:27;;;;;;;9.00;6.97;;;;;;;28.71;39.32;96626.97;5011214;28;20037;-77
2022/07/24 10:10:53;;;;;;;7.57;6.63;;;;;;;28.57;41.08;96627.22;5011698;28;20041;-77
2022/07/24 10:13:20;;;;;;;8.82;6.82;;;;;;;28.60;42.09;96617.94;5011220;28;20049;-76
2022/07/24 10:15:54;;;;;;;10.43;7.85;;;;;;;28.84;41.92;96627.88;5011503;28;20042;-77
2022/07/24 10:18:22;;;;;;;9.05;7.57;;;;;;;28.85;41.53;96623.84;5010988;28;20050;-76
2022/07/24 10:20:49;;;;;;;7.22;6.40;;;;;;;29.14;40.60;96626.09;5010267;28;20041;-76
2022/07/24 10:23:24;;;;;;;9.10;7.20;;;;;;;28.81;40.34;96627.94;5014702;28;20516;-76
2022/07/24 10:26:05;;;;;;;11.43;7.13;;;;;;;28.56;40.12;96622.84;5031054;28;20529;-77
2022/07/24 10:28:38;;;;;;;7.80;7.10;;;;;;;28.40;39.00;96619.94;5030938;28;20095;-76
2022/07/24 10:31:07;;;;;;;7.80;6.95;;;;;;;28.12;40.87;96626.84;5030615;28;20049;-76
2022/07/24 10:33:35;;;;;;;7.57;6.50;;;;;;;28.18;43.04;96617.50;5031015;28;20045;-76
2022/07/24 10:36:07;;;;;;;9.90;7.35;;;;;;;27.92;40.62;96609.97;5030390;28;20416;-76
2022/07/24 10:38:41;;;;;;;10.27;7.50;;;;;;;27.42;44.20;96610.78;5030845;28;20128;-74
2022/07/24 10:41:15;;;;;;;9.00;7.45;;;;;;;27.54;46.15;96605.38;5030498;28;20049;-76
2022/07/24 10:44:02;;;;;;;11.00;7.60;;;;;;;27.69;46.35;96603.13;5030086;28;20045;-76
2022/07/24 10:46:28;;;;;;;7.93;7.07;;;;;;;27.62;45.77;96597.66;5030062;28;20504;-78
2022/07/24 10:48:55;;;;;;;8.27;7.38;;;;;;;27.56;45.07;96604.94;5031321;28;20121;-75
2022/07/24 10:51:24;;;;;;;7.32;6.63;;;;;;;27.60;45.62;96597.28;5030191;28;20049;-76
2022/07/24 10:53:56;;;;;;;7.72;6.93;;;;;;;27.79;43.98;96599.41;5021270;28;20038;-78
2022/07/24 10:56:28;;;;;;;7.45;6.75;;;;;;;28.09;42.25;96601.28;5010201;28;20049;-76
2022/07/24 10:59:06;;;;;;;9.50;7.05;;;;;;;28.21;44.08;96594.25;5010776;28;20655;-77
2022/07/24 11:01:38;;;;;;;11.45;7.03;;;;;;;28.39;42.30;96601.56;5010360;28;20042;-77
2022/07/24 11:04:25;;;;;;;8.05;7.07;;;;;;;28.64;41.61;96601.09;5010358;28;20064;-78
2022/07/24 11:06:54;;;;;;;7.82;7.03;;;;;;;28.72;40.57;96596.91;5010806;28;20068;-77
2022/07/24 11:09:23;;;;;;;9.85;6.90;;;;;;;28.66;40.07;96588.22;5009982;28;20689;-77
2022/07/24 11:12:08;;;;;;;10.52;7.38;;;;;;;28.64;41.23;96593.47;5010643;28;20046;-77
2022/07/24 11:14:51;;;;;;;9.45;6.93;;;;;;;28.69;40.78;96576.16;5010416;28;20405;-77
2022/07/24 11:17:37;;;;;;;8.18;6.80;;;;;;;28.77;39.44;96586.00;5009418;28;20046;-77
2022/07/24 11:20:05;;;;;;;9.77;6.93;;;;;;;29.02;41.80;96577.06;5009694;28;20046;-77
2022/07/24 11:22:40;;;;;;;7.40;6.60;;;;;;;29.25;40.74;96578.19;5009926;28;20049;-77
2022/07/24 11:25:10;;;;;;;8.27;6.95;;;;;;;29.10;40.41;96577.69;5028535;28;20042;-77
2022/07/24 11:27:52;;;;;;;10.68;7.45;;;;;;;29.05;40.60;96564.19;5029829;28;20038;-77
2022/07/24 11:30:20;;;;;;;9.93;7.20;;;;;;;29.29;41.66;96570.47;5029367;28;20045;-78
2022/07/24 11:32:47;;;;;;;8.30;7.32;;;;;;;29.20;40.47;96565.47;5023275;28;20525;-78
2022/07/24 11:35:14;;;;;;;8.15;6.97;;;;;;;29.26;40.91;96563.72;5004691;28;20049;-77
2022/07/24 11:37:41;;;;;;;7.50;6.57;;;;;;;29.57;39.00;96569.03;5005278;28;20104;-78
2022/07/24 11:40:15;;;;;;;10.45;7.30;;;;;;;29.65;40.53;96567.59;5004855;28;20057;-77
2022/07/24 11:42:41;;;;;;;7.30;6.60;;;;;;;29.67;39.99;96567.97;5005482;28;20053;-78
2022/07/24 11:45:09;;;;;;;9.45;7.55;;;;;;;29.51;40.08;96570.75;5004728;28;20049;-78
2022/07/24 11:47:35;;;;;;;8.50;6.57;;;;;;;29.55;40.67;96560.28;5005417;28;20521;-79
2022/07/24 11:50:05;;;;;;;8.45;7.40;;;;;;;29.47;37.74;96562.41;5004632;28;20060;-78
2022/07/24 11:52:33;;;;;;;11.20;7.15;;;;;;;29.55;39.16;96557.47;5004556;28;20548;-79
2022/07/24 11:55:02;;;;;;;9.10;6.68;;;;;;;29.52;38.18;96558.28;5004816;28;20199;-79
2022/07/24 11:57:32;;;;;;;9.07;7.38;;;;;;;29.58;39.32;96556.56;5005192;28;20076;-80
2022/07/24 11:59:59;;;;;;;8.40;7.00;;;;;;;29.44;39.39;96545.66;5005263;28;20054;-80
2022/07/24 12:02:27;;;;;;;8.45;7.15;;;;;;;29.45;37.58;96555.69;5005026;28;20053;-79
2022/07/24 12:04:54;;;;;;;8.55;6.88;;;;;;;29.50;37.12;96550.31;5005039;28;20042;-77
2022/07/24 12:07:22;;;;;;;9.25;7.03;;;;;;;29.56;37.18;96548.59;5004553;28;20699;-78